Marriott, Utah
Current Conditions -  °F | °C
As of 3:53 PM on Monday 24 Nov 2014 (Local Time) from KOGD Reporting Station
Clear Clear  
Wind Chill: 34°   Ceiling: Unl
Heat Index: 40°   Visibility: 10mi
Dew Point: 20°   Wind: 9mph
Humidity: 45%   Direction: 310°NW
Pressure: 30.37"   Gusts: NA
Location:  41.2701°N, 112.135°W
Report Text: KOGD 242253Z AUTO 31008KT 10SM CLR 04/M07 A3037 RMK AO2 SLP288 T00441067 TSNO
Loading
Personal Weather Stations






























Interactive Weather Map New forecast layout! Learn more

10-Day Weather Forecast

Advertisements
Track Severe Weather on mobile